createdAt,value
2018-05-08T00:01:56.631Z,38.60
2018-05-08T00:04:24.955Z,38.00
2018-05-08T00:06:53.200Z,39.40
2018-05-08T00:09:21.456Z,39.40
2018-05-08T00:11:49.716Z,38.90
2018-05-08T00:14:17.976Z,38.40
2018-05-08T00:16:46.215Z,39.60
2018-05-08T00:19:14.480Z,38.40
2018-05-08T00:21:42.724Z,38.30
2018-05-08T00:24:12.211Z,41.10
2018-05-08T00:26:41.084Z,41.00
2018-05-08T00:29:10.113Z,38.70
2018-05-08T00:31:38.351Z,41.10
2018-05-08T00:34:06.628Z,39.30
2018-05-08T00:36:34.863Z,39.10
2018-05-08T00:39:03.111Z,38.60
2018-05-08T00:41:31.380Z,38.60
2018-05-08T00:43:59.968Z,39.90
2018-05-08T00:46:28.988Z,40.10
2018-05-08T00:48:57.699Z,40.10
2018-05-08T00:51:25.932Z,39.30
2018-05-08T00:53:54.172Z,40.70
2018-05-08T00:56:22.448Z,39.40
2018-05-08T00:58:50.707Z,38.90
2018-05-08T01:01:18.941Z,39.90
2018-05-08T01:03:47.972Z,39.60
2018-05-08T01:06:16.221Z,39.60
2018-05-08T01:08:44.460Z,39.30
2018-05-08T01:11:13.716Z,39.20
2018-05-08T01:13:41.961Z,39.20
2018-05-08T01:16:10.210Z,38.90
2018-05-08T01:18:38.473Z,39.50
2018-05-08T01:21:06.708Z,39.80
2018-05-08T01:23:34.960Z,39.90
2018-05-08T01:26:03.993Z,40.00
2018-05-08T01:28:32.236Z,39.90
2018-05-08T01:31:00.484Z,40.50
2018-05-08T01:33:29.132Z,40.00
2018-05-08T01:35:57.383Z,43.50
2018-05-08T01:38:25.621Z,40.50
2018-05-08T01:40:54.093Z,42.50
2018-05-08T01:43:22.397Z,41.50
2018-05-08T01:45:50.896Z,41.20
2018-05-08T01:48:19.160Z,41.20
2018-05-08T01:50:47.405Z,43.00
2018-05-08T01:53:15.648Z,41.40
2018-05-08T01:55:44.192Z,41.90
2018-05-08T01:58:13.201Z,44.20
2018-05-08T02:00:42.208Z,44.30
2018-05-08T02:03:11.783Z,44.30
2018-05-08T02:05:40.025Z,43.30
2018-05-08T02:08:08.273Z,44.80
2018-05-08T02:10:36.540Z,45.30
2018-05-08T02:13:04.784Z,44.10
2018-05-08T02:15:33.028Z,44.20
2018-05-08T02:18:01.538Z,44.20
2018-05-08T02:20:30.549Z,43.00
2018-05-08T02:22:58.794Z,43.10
2018-05-08T02:25:27.243Z,44.60
2018-05-08T02:27:55.494Z,45.40
2018-05-08T02:30:23.732Z,45.70
2018-05-08T02:32:52.120Z,45.60
2018-05-08T02:35:20.248Z,45.60
2018-05-08T02:37:48.509Z,44.10
2018-05-08T02:40:16.841Z,43.40
2018-05-08T02:42:45.088Z,44.10
2018-05-08T02:45:13.324Z,43.60
2018-05-08T02:47:43.231Z,43.40
2018-05-08T02:50:12.244Z,44.20
2018-05-08T02:52:40.493Z,44.10
2018-05-08T02:55:08.765Z,43.60
2018-05-08T02:57:37.113Z,43.40
2018-05-08T03:00:05.352Z,44.50
2018-05-08T03:02:33.856Z,43.70
2018-05-08T03:05:02.113Z,43.90
2018-05-08T03:07:30.361Z,43.60
2018-05-08T03:09:58.632Z,43.60
2018-05-08T03:12:28.825Z,44.70
2018-05-08T03:14:57.068Z,44.00
2018-05-08T03:17:25.345Z,44.10
2018-05-08T03:19:53.595Z,43.80
2018-05-08T03:22:21.873Z,45.50
2018-05-08T03:24:50.271Z,44.60
2018-05-08T03:27:18.517Z,44.30
2018-05-08T03:29:47.537Z,45.50
2018-05-08T03:32:15.791Z,45.40
2018-05-08T03:34:44.042Z,44.60
2018-05-08T03:37:12.290Z,45.20
2018-05-08T03:39:40.561Z,44.50
2018-05-08T03:42:08.812Z,45.20
2018-05-08T03:44:38.411Z,47.00
2018-05-08T03:47:08.080Z,47.00
2018-05-08T03:49:36.700Z,46.60
2018-05-08T03:52:05.729Z,45.80
2018-05-08T03:54:34.001Z,45.70
2018-05-08T03:57:02.244Z,45.40
2018-05-08T03:59:30.485Z,45.10
2018-05-08T04:02:10.525Z,45.60
2018-05-08T04:04:59.573Z,47.30
2018-05-08T04:07:39.616Z,47.30
2018-05-08T04:10:07.932Z,46.60
2018-05-08T04:12:36.172Z,46.30
2018-05-08T04:15:04.526Z,48.20
2018-05-08T04:17:32.691Z,47.40
2018-05-08T04:20:00.944Z,47.30
2018-05-08T04:22:30.983Z,47.40
2018-05-08T04:24:59.229Z,47.40
2018-05-08T04:27:27.471Z,47.40
2018-05-08T04:29:55.917Z,47.30
2018-05-08T04:32:24.931Z,46.70
2018-05-08T04:34:53.943Z,48.30
2018-05-08T04:37:22.207Z,48.30
2018-05-08T04:39:50.456Z,47.80
2018-05-08T04:42:18.702Z,47.90
2018-05-08T04:44:47.164Z,48.00
2018-05-08T04:47:15.417Z,51.50
2018-05-08T04:49:43.876Z,50.80
2018-05-08T04:52:12.912Z,49.20
2018-05-08T04:54:41.156Z,49.10
2018-05-08T04:57:09.409Z,50.60
2018-05-08T04:59:37.685Z,49.80
2018-05-08T05:02:06.088Z,49.80
2018-05-08T05:04:35.109Z,50.50
2018-05-08T05:07:03.614Z,50.50
2018-05-08T05:09:31.832Z,49.80
2018-05-08T05:12:00.841Z,50.80
2018-05-08T05:14:29.112Z,50.70
2018-05-08T05:16:57.368Z,50.50
2018-05-08T05:19:25.642Z,50.80
2018-05-08T05:21:54.181Z,52.60
2018-05-08T05:24:22.466Z,51.00
2018-05-08T05:26:50.944Z,50.60
2018-05-08T05:29:19.285Z,50.10
2018-05-08T05:31:48.522Z,51.80
2018-05-08T05:34:16.766Z,51.90
2018-05-08T05:36:45.035Z,52.50
2018-05-08T05:39:13.276Z,50.90
2018-05-08T05:41:41.546Z,52.10
2018-05-08T05:44:10.039Z,52.10
2018-05-08T05:46:38.284Z,52.00
2018-05-08T05:49:06.545Z,52.70
2018-05-08T05:51:35.556Z,52.10
2018-05-08T05:54:03.807Z,51.00
2018-05-08T05:56:32.056Z,51.50
2018-05-08T05:59:00.328Z,50.90
2018-05-08T06:01:28.750Z,51.20
2018-05-08T06:03:58.540Z,51.80
2018-05-08T06:06:26.825Z,51.70
2018-05-08T06:08:56.053Z,51.20
2018-05-08T06:11:26.516Z,51.50
2018-05-08T06:13:55.083Z,50.80
2018-05-08T06:16:23.319Z,50.80
2018-05-08T06:18:51.570Z,50.30
2018-05-08T06:21:19.911Z,49.60
2018-05-08T06:23:48.410Z,49.50
2018-05-08T06:26:16.659Z,50.10
2018-05-08T06:28:44.928Z,49.00
2018-05-08T06:31:13.181Z,48.30
2018-05-08T06:33:41.432Z,48.60
2018-05-08T06:36:10.704Z,47.90
2018-05-08T06:38:38.944Z,47.90
2018-05-08T06:41:07.183Z,47.60
2018-05-08T06:43:35.459Z,47.30
2018-05-08T06:46:03.704Z,47.40
2018-05-08T06:48:31.952Z,47.30
2018-05-08T06:51:00.220Z,47.20
2018-05-08T06:53:29.268Z,47.30
2018-05-08T06:55:57.641Z,47.10
2018-05-08T06:58:26.530Z,47.20
2018-05-08T07:00:54.767Z,46.70
2018-05-08T07:03:23.101Z,46.50
2018-05-08T07:05:51.497Z,46.90
2018-05-08T07:08:20.508Z,46.50
2018-05-08T07:10:48.832Z,46.40
2018-05-08T07:13:17.241Z,46.90
2018-05-08T07:15:46.305Z,46.50
2018-05-08T07:18:14.622Z,46.50
2018-05-08T07:20:43.727Z,47.40
2018-05-08T07:23:12.154Z,47.30
2018-05-08T07:25:41.561Z,46.30
2018-05-08T07:28:09.825Z,46.20
2018-05-08T07:30:38.398Z,46.00
2018-05-08T07:33:06.644Z,46.00
2018-05-08T07:35:34.917Z,46.30
2018-05-08T07:38:03.157Z,46.10
2018-05-08T07:40:31.761Z,46.10
2018-05-08T07:43:01.193Z,46.70
2018-05-08T07:45:30.276Z,46.10
2018-05-08T07:47:58.508Z,46.10
2018-05-08T07:50:26.937Z,46.00
2018-05-08T07:52:55.940Z,46.00
2018-05-08T07:55:24.507Z,45.90
2018-05-08T07:57:52.781Z,45.80
2018-05-08T08:00:21.029Z,45.40
2018-05-08T08:02:49.345Z,45.90
2018-05-08T08:05:17.964Z,45.40
2018-05-08T08:07:46.220Z,45.60
2018-05-08T08:10:14.490Z,45.50
2018-05-08T08:12:43.311Z,45.50
2018-05-08T08:15:11.632Z,45.40
2018-05-08T08:17:40.640Z,45.40
2018-05-08T08:20:10.502Z,45.10
2018-05-08T08:22:39.453Z,45.00
2018-05-08T08:25:07.760Z,44.80
2018-05-08T08:27:36.345Z,45.30
2018-05-08T08:30:04.597Z,45.00
2018-05-08T08:32:32.844Z,44.80
2018-05-08T08:35:01.843Z,44.30
2018-05-08T08:37:30.090Z,44.60
2018-05-08T08:39:58.329Z,44.70
2018-05-08T08:42:26.702Z,44.30
2018-05-08T08:44:54.952Z,43.90
2018-05-08T08:47:23.966Z,43.90
2018-05-08T08:49:52.616Z,43.90
2018-05-08T08:52:20.872Z,43.40
2018-05-08T08:54:50.228Z,43.40
2018-05-08T08:57:18.712Z,43.40
2018-05-08T08:59:46.969Z,43.40
2018-05-08T09:02:15.208Z,43.60
2018-05-08T09:04:44.175Z,43.20
2018-05-08T09:07:12.421Z,41.80
2018-05-08T09:09:40.668Z,41.60
2018-05-08T09:12:09.380Z,41.90
2018-05-08T09:14:37.631Z,42.20
2018-05-08T09:17:05.871Z,41.30
2018-05-08T09:19:34.456Z,41.30
2018-05-08T09:22:02.797Z,41.20
2018-05-08T09:24:32.933Z,40.60
2018-05-08T09:27:01.194Z,40.40
2018-05-08T09:29:29.437Z,40.00
2018-05-08T09:31:57.680Z,40.10
2018-05-08T09:34:26.223Z,40.00
2018-05-08T09:36:55.224Z,39.30
2018-05-08T09:39:25.036Z,39.50
2018-05-08T09:41:53.309Z,39.50
2018-05-08T09:44:21.557Z,39.60
2018-05-08T09:46:49.804Z,39.00
2018-05-08T09:49:18.065Z,38.90
2018-05-08T09:51:46.440Z,38.70
2018-05-08T09:54:14.734Z,38.80
2018-05-08T09:56:43.022Z,37.80
2018-05-08T09:59:11.576Z,37.40
2018-05-08T10:01:39.819Z,37.70
2018-05-08T10:04:08.156Z,37.90
2018-05-08T10:06:37.590Z,38.00
2018-05-08T10:09:05.775Z,38.00
2018-05-08T10:11:34.040Z,37.90
2018-05-08T10:14:02.281Z,38.10
2018-05-08T10:16:30.532Z,36.20
2018-05-08T10:18:59.760Z,35.70
2018-05-08T10:21:28.008Z,35.30
2018-05-08T10:23:56.274Z,35.30
2018-05-08T10:26:26.178Z,35.10
2018-05-08T10:28:54.353Z,35.10
2018-05-08T10:31:22.612Z,35.30
2018-05-08T10:33:50.886Z,34.80
2018-05-08T10:36:20.631Z,35.30
2018-05-08T10:38:48.876Z,35.20
2018-05-08T10:41:19.340Z,34.40
2018-05-08T10:43:48.105Z,33.80
2018-05-08T10:46:16.380Z,33.60
2018-05-08T10:48:45.540Z,32.20
2018-05-08T10:51:13.773Z,32.20
2018-05-08T10:53:42.024Z,33.10
2018-05-08T10:56:10.745Z,33.10
2018-05-08T10:58:38.996Z,33.20
2018-05-08T11:01:07.760Z,33.00
2018-05-08T11:03:36.447Z,33.70
2018-05-08T11:06:04.687Z,30.90
2018-05-08T11:08:32.936Z,30.40
2018-05-08T11:11:01.964Z,28.90
2018-05-08T11:13:30.204Z,28.80
2018-05-08T11:15:58.453Z,29.00
2018-05-08T11:18:26.720Z,26.20
2018-05-08T11:20:54.969Z,25.00
2018-05-08T11:23:23.217Z,23.50
2018-05-08T11:25:52.520Z,22.80
2018-05-08T11:28:21.528Z,23.50
2018-05-08T11:30:49.774Z,23.50
2018-05-08T11:33:18.056Z,22.60
2018-05-08T11:35:46.296Z,21.20
2018-05-08T11:38:14.544Z,21.50
2018-05-08T11:40:42.824Z,21.00
2018-05-08T11:43:11.083Z,22.10
2018-05-08T11:45:39.323Z,20.50
2018-05-08T11:48:08.433Z,20.20
2018-05-08T11:50:36.673Z,20.20
2018-05-08T11:53:04.923Z,20.30
2018-05-08T11:55:33.341Z,19.40
2018-05-08T11:58:01.568Z,19.00
2018-05-08T12:00:31.928Z,18.10
2018-05-08T12:03:00.384Z,18.00
2018-05-08T12:05:28.647Z,18.90
2018-05-08T12:07:56.899Z,17.90
2018-05-08T12:10:25.651Z,19.10
2018-05-08T12:12:54.297Z,18.60
2018-05-08T12:15:22.549Z,18.10
2018-05-08T12:17:51.585Z,17.70
2018-05-08T12:20:19.945Z,17.60
2018-05-08T12:22:48.192Z,17.80
2018-05-08T12:25:16.668Z,18.70
2018-05-08T12:27:45.681Z,17.70
2018-05-08T12:30:13.922Z,17.70
2018-05-08T12:32:42.540Z,17.50
2018-05-08T12:35:10.710Z,17.80
2018-05-08T12:37:38.983Z,18.20
2018-05-08T12:40:07.614Z,18.20
2018-05-08T12:42:35.860Z,18.20
2018-05-08T12:45:04.101Z,18.50
2018-05-08T12:47:32.367Z,17.50
2018-05-08T12:50:00.615Z,18.60
2018-05-08T12:52:28.864Z,18.10
2018-05-08T12:54:57.572Z,17.20
2018-05-08T12:57:26.814Z,18.00
2018-05-08T12:59:55.053Z,17.20
2018-05-08T13:02:23.320Z,17.10
2018-05-08T13:04:51.973Z,16.40
2018-05-08T13:07:21.889Z,17.80
2018-05-08T13:09:51.728Z,17.70
2018-05-08T13:12:19.978Z,17.60
2018-05-08T13:14:48.217Z,18.00
2018-05-08T13:17:16.908Z,17.10
2018-05-08T13:19:45.148Z,16.70
2018-05-08T13:22:13.408Z,16.50
2018-05-08T13:24:41.684Z,16.70
2018-05-08T13:27:09.933Z,16.30
2018-05-08T13:29:38.176Z,16.60
2018-05-08T13:32:06.444Z,16.40
2018-05-08T13:34:34.688Z,16.30
2018-05-08T13:37:02.932Z,16.50
2018-05-08T13:39:31.472Z,15.50
2018-05-08T13:41:59.816Z,16.20
2018-05-08T13:44:27.959Z,16.00
2018-05-08T13:46:56.225Z,16.10
2018-05-08T13:49:25.248Z,15.20
2018-05-08T13:51:54.265Z,15.00
2018-05-08T13:54:22.532Z,15.00
2018-05-08T13:56:50.822Z,15.80
2018-05-08T13:59:19.069Z,15.30
2018-05-08T14:01:48.176Z,16.20
2018-05-08T14:04:17.189Z,16.10
2018-05-08T14:06:47.021Z,16.00
2018-05-08T14:09:16.012Z,15.50
2018-05-08T14:11:44.275Z,15.40
2018-05-08T14:14:12.672Z,16.00
2018-05-08T14:16:40.923Z,15.40
2018-05-08T14:19:09.245Z,14.80
2018-05-08T14:21:37.580Z,14.80
2018-05-08T14:24:06.729Z,16.00
2018-05-08T14:26:35.336Z,15.90
2018-05-08T14:29:03.571Z,15.20
2018-05-08T14:31:32.025Z,15.20
2018-05-08T14:34:00.467Z,15.80
2018-05-08T14:36:29.631Z,15.20
2018-05-08T14:38:57.896Z,15.00
2018-05-08T14:41:26.148Z,15.10
2018-05-08T14:43:54.393Z,15.70
2018-05-08T14:46:22.709Z,14.90
2018-05-08T14:48:50.956Z,15.30
2018-05-08T14:51:19.206Z,14.50
2018-05-08T14:53:47.469Z,15.60
2018-05-08T14:56:15.713Z,15.50
2018-05-08T14:58:43.951Z,15.20
2018-05-08T15:01:12.216Z,14.70
2018-05-08T15:03:40.463Z,15.20
2018-05-08T15:06:09.336Z,15.40
2018-05-08T15:08:38.036Z,15.00
2018-05-08T15:11:06.280Z,15.10
2018-05-08T15:13:34.524Z,15.80
2018-05-08T15:16:02.792Z,15.30
2018-05-08T15:18:31.060Z,14.80
2018-05-08T15:20:59.280Z,15.20
2018-05-08T15:23:28.359Z,15.00
2018-05-08T15:25:56.809Z,15.00
2018-05-08T15:28:25.032Z,15.00
2018-05-08T15:30:54.140Z,15.70
2018-05-08T15:33:22.380Z,15.60
2018-05-08T15:35:50.784Z,16.70
2018-05-08T15:38:19.880Z,16.00
2018-05-08T15:40:48.247Z,15.90
2018-05-08T15:43:16.468Z,16.20
2018-05-08T15:45:44.776Z,15.20
2018-05-08T15:48:13.017Z,15.80
2018-05-08T15:50:41.320Z,15.80
2018-05-08T15:53:09.788Z,16.00
2018-05-08T15:55:38.043Z,17.80
2018-05-08T15:58:06.561Z,17.70
2018-05-08T16:00:34.857Z,16.80
2018-05-08T16:03:04.146Z,17.10
2018-05-08T16:05:32.565Z,16.70
2018-05-08T16:08:01.711Z,16.70
2018-05-08T16:10:29.936Z,16.70
2018-05-08T16:12:59.194Z,16.60
2018-05-08T16:15:27.952Z,16.00
2018-05-08T16:17:56.260Z,16.60
2018-05-08T16:20:25.561Z,16.50
2018-05-08T16:22:53.868Z,16.70
2018-05-08T16:25:22.318Z,16.80
2018-05-08T16:27:51.620Z,16.40
2018-05-08T16:30:20.093Z,16.40
2018-05-08T16:32:48.406Z,16.70
2018-05-08T16:35:17.416Z,16.40
2018-05-08T16:37:46.529Z,16.20
2018-05-08T16:40:14.777Z,16.20
2018-05-08T16:42:43.809Z,16.30
2018-05-08T16:45:12.151Z,16.20
2018-05-08T16:47:41.156Z,17.20
2018-05-08T16:50:09.493Z,17.10
2018-05-08T16:52:37.892Z,17.70
2018-05-08T16:55:06.248Z,18.00
2018-05-08T16:57:34.632Z,18.60
2018-05-08T17:00:03.184Z,19.10
2018-05-08T17:02:31.428Z,19.00
2018-05-08T17:05:00.432Z,18.40
2018-05-08T17:07:29.769Z,18.40
2018-05-08T17:09:58.402Z,18.00
2018-05-08T17:12:27.406Z,18.40
2018-05-08T17:14:56.693Z,18.40
2018-05-08T17:17:25.717Z,18.50
2018-05-08T17:19:54.041Z,18.50
2018-05-08T17:22:23.336Z,18.30
2018-05-08T17:24:51.712Z,17.90
2018-05-08T17:27:21.013Z,18.70
2018-05-08T17:29:49.897Z,19.00
2018-05-08T17:32:18.120Z,19.60
2018-05-08T17:34:47.127Z,20.80
2018-05-08T17:37:15.414Z,20.80
2018-05-08T17:39:43.652Z,20.60
2018-05-08T17:42:12.099Z,20.30
2018-05-08T17:44:40.483Z,19.90
2018-05-08T17:47:09.196Z,20.00
2018-05-08T17:49:37.656Z,20.30
2018-05-08T17:52:06.274Z,20.60
2018-05-08T17:54:34.720Z,21.20
2018-05-08T17:57:03.101Z,21.40
2018-05-08T17:59:32.424Z,21.40
2018-05-08T18:02:02.626Z,21.80
2018-05-08T18:04:31.000Z,21.80
2018-05-08T18:06:59.372Z,22.70
2018-05-08T18:09:27.609Z,22.10
2018-05-08T18:11:57.372Z,22.80
2018-05-08T18:14:25.781Z,22.50
2018-05-08T18:16:54.135Z,22.70
2018-05-08T18:19:22.505Z,23.20
2018-05-08T18:21:51.087Z,23.60
2018-05-08T18:24:19.328Z,23.20
2018-05-08T18:26:47.577Z,23.20
2018-05-08T18:29:16.184Z,23.50
2018-05-08T18:31:44.437Z,23.80
2018-05-08T18:34:13.772Z,24.10
2018-05-08T18:36:42.479Z,24.10
2018-05-08T18:39:10.734Z,24.20
2018-05-08T18:41:39.035Z,24.30
2018-05-08T18:44:07.296Z,24.50
2018-05-08T18:46:35.597Z,25.00
2018-05-08T18:49:03.969Z,25.00
2018-05-08T18:51:32.857Z,25.60
2018-05-08T18:54:03.193Z,25.30
2018-05-08T18:56:31.579Z,25.70
2018-05-08T18:58:59.972Z,25.30
2018-05-08T19:01:28.983Z,25.40
2018-05-08T19:03:58.113Z,25.60
2018-05-08T19:06:26.390Z,25.60
2018-05-08T19:08:54.852Z,25.60
2018-05-08T19:11:28.845Z,26.30
2018-05-08T19:13:57.319Z,26.80
2018-05-08T19:16:26.339Z,26.50
2018-05-08T19:19:00.272Z,26.50
2018-05-08T19:21:28.568Z,26.40
2018-05-08T19:24:02.644Z,26.80
2018-05-08T19:26:30.895Z,26.70
2018-05-08T19:29:05.494Z,27.00
2018-05-08T19:31:33.761Z,26.50
2018-05-08T19:34:02.145Z,26.80
2018-05-08T19:36:36.237Z,26.90
2018-05-08T19:39:05.350Z,26.80
2018-05-08T19:41:33.541Z,27.10
2018-05-08T19:44:01.939Z,26.90
2018-05-08T19:46:31.061Z,27.30
2018-05-08T19:48:59.300Z,27.30
2018-05-08T19:51:28.569Z,27.80
2018-05-08T19:53:57.749Z,28.20
2018-05-08T19:56:25.984Z,28.10
2018-05-08T19:58:54.945Z,27.60
2018-05-08T20:01:23.220Z,27.90
2018-05-08T20:03:51.612Z,27.80
2018-05-08T20:06:20.001Z,27.90
2018-05-08T20:08:49.028Z,28.00
2018-05-08T20:11:18.036Z,28.00
2018-05-08T20:13:46.729Z,28.00
2018-05-08T20:16:15.339Z,28.30
2018-05-08T20:18:43.708Z,28.40
2018-05-08T20:21:11.980Z,29.10
2018-05-08T20:23:40.853Z,28.60
2018-05-08T20:26:10.096Z,28.70
2018-05-08T20:28:38.353Z,28.70
2018-05-08T20:31:06.616Z,28.30
2018-05-08T20:33:34.868Z,28.50
2018-05-08T20:36:04.821Z,29.30
2018-05-08T20:38:33.017Z,29.10
2018-05-08T20:41:02.090Z,28.70
2018-05-08T20:43:30.345Z,28.80
2018-05-08T20:45:58.657Z,29.10
2018-05-08T20:48:27.123Z,28.80
2018-05-08T20:50:55.453Z,29.10
2018-05-08T20:53:23.700Z,29.20
2018-05-08T20:55:52.177Z,29.70
2018-05-08T20:58:20.612Z,29.10
2018-05-08T21:00:48.865Z,29.60
2018-05-08T21:03:17.109Z,29.20
2018-05-08T21:05:45.381Z,29.10
2018-05-08T21:08:13.756Z,29.30
2018-05-08T21:10:42.008Z,30.20
2018-05-08T21:13:11.464Z,29.70
2018-05-08T21:15:40.794Z,30.00
2018-05-08T21:18:09.852Z,29.90
2018-05-08T21:20:39.417Z,30.00
2018-05-08T21:23:08.029Z,30.00
2018-05-08T21:25:36.396Z,30.40
2018-05-08T21:28:10.440Z,30.30
2018-05-08T21:30:44.391Z,30.20
2018-05-08T21:33:13.248Z,30.20
2018-05-08T21:35:42.260Z,30.00
2018-05-08T21:38:10.556Z,30.00
2018-05-08T21:40:39.356Z,29.90
2018-05-08T21:43:07.604Z,30.40
2018-05-08T21:45:35.922Z,31.30
2018-05-08T21:48:04.173Z,33.70
2018-05-08T21:50:32.508Z,34.30
2018-05-08T21:53:01.517Z,33.60
2018-05-08T21:55:30.656Z,35.00
2018-05-08T21:57:58.900Z,35.00
2018-05-08T22:00:27.539Z,34.30
2018-05-08T22:02:56.296Z,35.00
2018-05-08T22:05:24.553Z,35.80
2018-05-08T22:07:52.798Z,35.90
2018-05-08T22:10:21.068Z,36.00
2018-05-08T22:12:49.309Z,36.00
2018-05-08T22:15:18.491Z,36.40
2018-05-08T22:17:46.913Z,36.30
2018-05-08T22:20:15.915Z,36.60
2018-05-08T22:22:44.181Z,36.50
2018-05-08T22:25:13.548Z,36.20
2018-05-08T22:27:41.797Z,35.70
2018-05-08T22:30:10.036Z,34.60
2018-05-08T22:32:39.260Z,35.20
2018-05-08T22:35:09.197Z,34.30
2018-05-08T22:37:37.444Z,34.30
2018-05-08T22:40:05.996Z,34.30
2018-05-08T22:42:34.240Z,34.60
2018-05-08T22:45:02.492Z,35.30
2018-05-08T22:47:31.742Z,37.20
2018-05-08T22:50:00.708Z,37.20
2018-05-08T22:52:29.700Z,36.10
2018-05-08T22:54:57.975Z,36.10
2018-05-08T22:57:26.227Z,36.70
2018-05-08T22:59:54.472Z,35.80
2018-05-08T23:02:22.740Z,38.50
2018-05-08T23:04:50.980Z,38.30
2018-05-08T23:07:20.220Z,38.20
2018-05-08T23:09:48.556Z,38.00
2018-05-08T23:12:16.978Z,39.20
2018-05-08T23:14:45.218Z,39.80
2018-05-08T23:17:13.508Z,38.70
2018-05-08T23:19:41.757Z,38.90
2018-05-08T23:22:10.001Z,39.00
2018-05-08T23:24:38.853Z,38.90
2018-05-08T23:27:07.100Z,39.10
2018-05-08T23:29:35.352Z,39.50
2018-05-08T23:32:05.156Z,38.60
2018-05-08T23:34:33.406Z,38.60
2018-05-08T23:37:01.645Z,38.00
2018-05-08T23:39:29.915Z,37.90
2018-05-08T23:41:59.067Z,38.00
2018-05-08T23:44:27.317Z,37.70
2018-05-08T23:46:55.648Z,38.60
2018-05-08T23:49:23.899Z,38.90
2018-05-08T23:51:52.273Z,38.50
2018-05-08T23:54:20.763Z,39.90
2018-05-08T23:56:49.098Z,39.20
2018-05-08T23:59:17.341Z,39.60
